sensor_id;sensor_type;location;lat;lon;timestamp;P1;durP1;ratioP1;P2;durP2;ratioP2
31347;SDS011;21711;49.708;18.568;2023-10-31T00:01:23;2.38;;;0.75;;
31347;SDS011;21711;49.708;18.568;2023-10-31T00:03:50;5.72;;;1.05;;
31347;SDS011;21711;49.708;18.568;2023-10-31T00:06:18;3.78;;;0.60;;
31347;SDS011;21711;49.708;18.568;2023-10-31T00:08:45;2.80;;;0.60;;
31347;SDS011;21711;49.708;18.568;2023-10-31T00:11:12;2.47;;;0.80;;
31347;SDS011;21711;49.708;18.568;2023-10-31T00:13:40;4.30;;;0.70;;
31347;SDS011;21711;49.708;18.568;2023-10-31T00:16:08;3.20;;;0.70;;
31347;SDS011;21711;49.708;18.568;2023-10-31T00:18:36;4.32;;;1.00;;
31347;SDS011;21711;49.708;18.568;2023-10-31T00:21:03;6.22;;;0.93;;
31347;SDS011;21711;49.708;18.568;2023-10-31T00:23:32;3.45;;;0.60;;
31347;SDS011;21711;49.708;18.568;2023-10-31T00:25:59;1.50;;;0.50;;
31347;SDS011;21711;49.708;18.568;2023-10-31T00:28:26;1.92;;;1.00;;
31347;SDS011;21711;49.708;18.568;2023-10-31T00:30:54;4.65;;;0.63;;
31347;SDS011;21711;49.708;18.568;2023-10-31T00:33:22;6.20;;;0.80;;
31347;SDS011;21711;49.708;18.568;2023-10-31T00:35:49;6.13;;;1.05;;
31347;SDS011;21711;49.708;18.568;2023-10-31T00:38:16;6.93;;;1.08;;
31347;SDS011;21711;49.708;18.568;2023-10-31T00:40:44;9.70;;;1.90;;
31347;SDS011;21711;49.708;18.568;2023-10-31T00:43:11;1.98;;;0.80;;
31347;SDS011;21711;49.708;18.568;2023-10-31T00:45:39;5.60;;;0.85;;
31347;SDS011;21711;49.708;18.568;2023-10-31T00:48:06;3.13;;;0.90;;
31347;SDS011;21711;49.708;18.568;2023-10-31T00:50:34;2.42;;;0.40;;
31347;SDS011;21711;49.708;18.568;2023-10-31T00:53:01;5.20;;;1.02;;
31347;SDS011;21711;49.708;18.568;2023-10-31T00:55:29;3.78;;;0.88;;
31347;SDS011;21711;49.708;18.568;2023-10-31T00:57:56;3.10;;;1.05;;
31347;SDS011;21711;49.708;18.568;2023-10-31T01:00:23;3.20;;;1.00;;
31347;SDS011;21711;49.708;18.568;2023-10-31T01:02:51;3.45;;;0.73;;
31347;SDS011;21711;49.708;18.568;2023-10-31T01:05:18;3.78;;;1.00;;
31347;SDS011;21711;49.708;18.568;2023-10-31T01:07:46;8.95;;;0.98;;
31347;SDS011;21711;49.708;18.568;2023-10-31T01:10:13;3.90;;;0.57;;
31347;SDS011;21711;49.708;18.568;2023-10-31T01:12:40;2.75;;;1.20;;
31347;SDS011;21711;49.708;18.568;2023-10-31T01:15:08;2.83;;;0.77;;
31347;SDS011;21711;49.708;18.568;2023-10-31T01:17:36;1.50;;;0.75;;
31347;SDS011;21711;49.708;18.568;2023-10-31T01:20:03;8.43;;;0.90;;
31347;SDS011;21711;49.708;18.568;2023-10-31T01:22:32;3.78;;;0.70;;
31347;SDS011;21711;49.708;18.568;2023-10-31T01:25:00;3.42;;;1.25;;
31347;SDS011;21711;49.708;18.568;2023-10-31T01:27:28;2.15;;;0.93;;
31347;SDS011;21711;49.708;18.568;2023-10-31T01:29:57;2.05;;;0.70;;
31347;SDS011;21711;49.708;18.568;2023-10-31T01:32:24;6.32;;;1.23;;
31347;SDS011;21711;49.708;18.568;2023-10-31T01:34:51;4.97;;;0.93;;
31347;SDS011;21711;49.708;18.568;2023-10-31T01:37:19;4.28;;;0.80;;
31347;SDS011;21711;49.708;18.568;2023-10-31T01:39:47;3.55;;;1.10;;
31347;SDS011;21711;49.708;18.568;2023-10-31T01:42:15;5.32;;;1.20;;
31347;SDS011;21711;49.708;18.568;2023-10-31T01:44:43;2.72;;;0.93;;
31347;SDS011;21711;49.708;18.568;2023-10-31T01:47:10;3.83;;;1.50;;
31347;SDS011;21711;49.708;18.568;2023-10-31T01:49:38;4.25;;;0.80;;
31347;SDS011;21711;49.708;18.568;2023-10-31T01:52:06;7.63;;;1.05;;
31347;SDS011;21711;49.708;18.568;2023-10-31T01:54:34;1.55;;;0.70;;
31347;SDS011;21711;49.708;18.568;2023-10-31T01:57:02;3.47;;;0.90;;
31347;SDS011;21711;49.708;18.568;2023-10-31T01:59:31;4.82;;;0.98;;
31347;SDS011;21711;49.708;18.568;2023-10-31T02:01:59;6.97;;;0.90;;
31347;SDS011;21711;49.708;18.568;2023-10-31T02:04:30;4.43;;;0.93;;
31347;SDS011;21711;49.708;18.568;2023-10-31T02:06:57;2.95;;;1.55;;
31347;SDS011;21711;49.708;18.568;2023-10-31T02:09:24;7.20;;;0.90;;
31347;SDS011;21711;49.708;18.568;2023-10-31T02:11:53;2.72;;;0.77;;
31347;SDS011;21711;49.708;18.568;2023-10-31T02:14:21;3.15;;;1.15;;
31347;SDS011;21711;49.708;18.568;2023-10-31T02:16:50;2.42;;;0.77;;
31347;SDS011;21711;49.708;18.568;2023-10-31T02:19:21;1.70;;;0.88;;
31347;SDS011;21711;49.708;18.568;2023-10-31T02:21:48;2.50;;;0.82;;
31347;SDS011;21711;49.708;18.568;2023-10-31T02:24:16;3.80;;;1.20;;
31347;SDS011;21711;49.708;18.568;2023-10-31T02:26:43;4.18;;;0.95;;
31347;SDS011;21711;49.708;18.568;2023-10-31T02:29:10;2.97;;;1.10;;
31347;SDS011;21711;49.708;18.568;2023-10-31T02:31:38;1.38;;;0.75;;
31347;SDS011;21711;49.708;18.568;2023-10-31T02:34:06;8.55;;;0.85;;
31347;SDS011;21711;49.708;18.568;2023-10-31T02:36:34;6.45;;;1.00;;
31347;SDS011;21711;49.708;18.568;2023-10-31T02:39:01;3.72;;;1.35;;
31347;SDS011;21711;49.708;18.568;2023-10-31T02:41:28;5.72;;;1.27;;
31347;SDS011;21711;49.708;18.568;2023-10-31T02:43:56;5.88;;;1.52;;
31347;SDS011;21711;49.708;18.568;2023-10-31T02:46:24;4.38;;;1.02;;
31347;SDS011;21711;49.708;18.568;2023-10-31T02:48:51;1.90;;;1.10;;
31347;SDS011;21711;49.708;18.568;2023-10-31T02:51:19;5.80;;;1.10;;
31347;SDS011;21711;49.708;18.568;2023-10-31T02:53:46;2.53;;;1.13;;
31347;SDS011;21711;49.708;18.568;2023-10-31T02:56:14;7.68;;;1.90;;
31347;SDS011;21711;49.708;18.568;2023-10-31T02:58:41;4.70;;;1.10;;
31347;SDS011;21711;49.708;18.568;2023-10-31T03:01:08;4.38;;;1.17;;
31347;SDS011;21711;49.708;18.568;2023-10-31T03:03:36;2.30;;;1.02;;
31347;SDS011;21711;49.708;18.568;2023-10-31T03:06:04;2.47;;;0.93;;
31347;SDS011;21711;49.708;18.568;2023-10-31T03:08:32;3.35;;;1.25;;
31347;SDS011;21711;49.708;18.568;2023-10-31T03:10:59;6.03;;;1.08;;
31347;SDS011;21711;49.708;18.568;2023-10-31T03:13:27;2.58;;;1.02;;
31347;SDS011;21711;49.708;18.568;2023-10-31T03:15:54;5.38;;;1.70;;
31347;SDS011;21711;49.708;18.568;2023-10-31T03:18:23;4.38;;;1.00;;
31347;SDS011;21711;49.708;18.568;2023-10-31T03:20:51;1.95;;;0.90;;
31347;SDS011;21711;49.708;18.568;2023-10-31T03:23:18;5.22;;;1.75;;
31347;SDS011;21711;49.708;18.568;2023-10-31T03:25:46;2.70;;;1.23;;
31347;SDS011;21711;49.708;18.568;2023-10-31T03:28:17;2.95;;;1.17;;
31347;SDS011;21711;49.708;18.568;2023-10-31T03:30:47;2.47;;;1.15;;
31347;SDS011;21711;49.708;18.568;2023-10-31T03:33:15;2.38;;;0.70;;
31347;SDS011;21711;49.708;18.568;2023-10-31T03:35:43;2.72;;;0.60;;
31347;SDS011;21711;49.708;18.568;2023-10-31T03:38:11;5.47;;;1.80;;
31347;SDS011;21711;49.708;18.568;2023-10-31T03:40:39;6.10;;;0.90;;
31347;SDS011;21711;49.708;18.568;2023-10-31T03:43:06;3.92;;;1.00;;
31347;SDS011;21711;49.708;18.568;2023-10-31T03:45:34;5.57;;;0.95;;
31347;SDS011;21711;49.708;18.568;2023-10-31T03:48:01;6.43;;;0.95;;
31347;SDS011;21711;49.708;18.568;2023-10-31T03:50:29;3.83;;;0.63;;
31347;SDS011;21711;49.708;18.568;2023-10-31T03:52:57;3.67;;;0.88;;
31347;SDS011;21711;49.708;18.568;2023-10-31T03:55:24;7.72;;;1.63;;
31347;SDS011;21711;49.708;18.568;2023-10-31T03:57:52;3.05;;;1.08;;
31347;SDS011;21711;49.708;18.568;2023-10-31T04:00:19;5.05;;;1.30;;
31347;SDS011;21711;49.708;18.568;2023-10-31T04:02:47;2.95;;;1.00;;
31347;SDS011;21711;49.708;18.568;2023-10-31T04:05:14;5.25;;;1.00;;
31347;SDS011;21711;49.708;18.568;2023-10-31T04:07:42;3.30;;;0.88;;
31347;SDS011;21711;49.708;18.568;2023-10-31T04:10:10;4.30;;;1.10;;
31347;SDS011;21711;49.708;18.568;2023-10-31T04:12:37;3.40;;;1.27;;
31347;SDS011;21711;49.708;18.568;2023-10-31T04:15:05;6.68;;;1.42;;
31347;SDS011;21711;49.708;18.568;2023-10-31T04:17:33;2.50;;;1.02;;
31347;SDS011;21711;49.708;18.568;2023-10-31T04:20:01;8.68;;;1.42;;
31347;SDS011;21711;49.708;18.568;2023-10-31T04:22:29;3.25;;;1.00;;
31347;SDS011;21711;49.708;18.568;2023-10-31T04:24:56;2.45;;;0.82;;
31347;SDS011;21711;49.708;18.568;2023-10-31T04:27:23;4.65;;;1.20;;
31347;SDS011;21711;49.708;18.568;2023-10-31T04:29:50;5.25;;;1.13;;
31347;SDS011;21711;49.708;18.568;2023-10-31T04:32:18;3.45;;;1.00;;
31347;SDS011;21711;49.708;18.568;2023-10-31T04:34:45;2.90;;;0.95;;
31347;SDS011;21711;49.708;18.568;2023-10-31T04:37:13;9.98;;;1.35;;
31347;SDS011;21711;49.708;18.568;2023-10-31T04:39:40;2.35;;;0.80;;
31347;SDS011;21711;49.708;18.568;2023-10-31T04:42:07;4.50;;;1.10;;
31347;SDS011;21711;49.708;18.568;2023-10-31T04:44:34;3.65;;;1.00;;
31347;SDS011;21711;49.708;18.568;2023-10-31T04:47:02;5.25;;;1.10;;
31347;SDS011;21711;49.708;18.568;2023-10-31T04:49:29;3.75;;;1.20;;
31347;SDS011;21711;49.708;18.568;2023-10-31T04:51:57;6.20;;;1.35;;
31347;SDS011;21711;49.708;18.568;2023-10-31T04:54:24;4.65;;;1.33;;
31347;SDS011;21711;49.708;18.568;2023-10-31T04:56:51;5.38;;;1.30;;
31347;SDS011;21711;49.708;18.568;2023-10-31T04:59:19;3.65;;;0.90;;
31347;SDS011;21711;49.708;18.568;2023-10-31T05:01:49;4.65;;;1.15;;
31347;SDS011;21711;49.708;18.568;2023-10-31T05:04:17;3.28;;;0.90;;
31347;SDS011;21711;49.708;18.568;2023-10-31T05:06:45;7.32;;;1.15;;
31347;SDS011;21711;49.708;18.568;2023-10-31T05:09:13;3.08;;;1.10;;
31347;SDS011;21711;49.708;18.568;2023-10-31T05:11:42;2.75;;;0.90;;
31347;SDS011;21711;49.708;18.568;2023-10-31T05:14:09;4.78;;;1.27;;
31347;SDS011;21711;49.708;18.568;2023-10-31T05:16:41;3.58;;;0.90;;
31347;SDS011;21711;49.708;18.568;2023-10-31T05:19:10;3.58;;;0.80;;
31347;SDS011;21711;49.708;18.568;2023-10-31T05:21:37;3.80;;;1.30;;
31347;SDS011;21711;49.708;18.568;2023-10-31T05:24:05;6.97;;;1.00;;
31347;SDS011;21711;49.708;18.568;2023-10-31T05:26:33;2.50;;;0.95;;
31347;SDS011;21711;49.708;18.568;2023-10-31T05:29:01;3.33;;;1.00;;
31347;SDS011;21711;49.708;18.568;2023-10-31T05:31:28;6.25;;;1.10;;
31347;SDS011;21711;49.708;18.568;2023-10-31T05:33:56;4.65;;;1.20;;
31347;SDS011;21711;49.708;18.568;2023-10-31T05:36:24;3.88;;;0.82;;
31347;SDS011;21711;49.708;18.568;2023-10-31T05:38:52;3.53;;;1.10;;
31347;SDS011;21711;49.708;18.568;2023-10-31T05:41:20;6.60;;;1.10;;
31347;SDS011;21711;49.708;18.568;2023-10-31T05:43:48;4.00;;;1.27;;
31347;SDS011;21711;49.708;18.568;2023-10-31T05:46:15;5.03;;;0.68;;
31347;SDS011;21711;49.708;18.568;2023-10-31T05:48:44;4.55;;;1.23;;
31347;SDS011;21711;49.708;18.568;2023-10-31T05:53:45;2.10;;;0.70;;
31347;SDS011;21711;49.708;18.568;2023-10-31T05:56:15;2.30;;;1.00;;
31347;SDS011;21711;49.708;18.568;2023-10-31T05:58:43;3.72;;;0.90;;
31347;SDS011;21711;49.708;18.568;2023-10-31T06:01:11;6.65;;;1.00;;
31347;SDS011;21711;49.708;18.568;2023-10-31T06:03:41;6.25;;;1.10;;
31347;SDS011;21711;49.708;18.568;2023-10-31T06:06:12;2.45;;;0.77;;
31347;SDS011;21711;49.708;18.568;2023-10-31T06:08:40;4.55;;;0.98;;
31347;SDS011;21711;49.708;18.568;2023-10-31T06:11:08;3.72;;;0.98;;
31347;SDS011;21711;49.708;18.568;2023-10-31T06:13:39;2.15;;;0.90;;
31347;SDS011;21711;49.708;18.568;2023-10-31T06:16:07;2.83;;;0.90;;
31347;SDS011;21711;49.708;18.568;2023-10-31T06:18:34;3.63;;;0.90;;
31347;SDS011;21711;49.708;18.568;2023-10-31T06:21:02;2.28;;;1.17;;
31347;SDS011;21711;49.708;18.568;2023-10-31T06:23:30;4.80;;;1.00;;
31347;SDS011;21711;49.708;18.568;2023-10-31T06:25:58;4.38;;;1.10;;
31347;SDS011;21711;49.708;18.568;2023-10-31T06:28:25;4.82;;;1.00;;
31347;SDS011;21711;49.708;18.568;2023-10-31T06:30:53;3.22;;;0.80;;
31347;SDS011;21711;49.708;18.568;2023-10-31T06:33:21;2.67;;;1.25;;
31347;SDS011;21711;49.708;18.568;2023-10-31T06:35:48;5.75;;;1.00;;
31347;SDS011;21711;49.708;18.568;2023-10-31T06:38:16;1.08;;;0.60;;
31347;SDS011;21711;49.708;18.568;2023-10-31T06:40:44;2.45;;;1.17;;
31347;SDS011;21711;49.708;18.568;2023-10-31T06:43:11;3.55;;;1.10;;
31347;SDS011;21711;49.708;18.568;2023-10-31T06:45:39;3.35;;;0.80;;
31347;SDS011;21711;49.708;18.568;2023-10-31T06:48:06;3.25;;;1.13;;
31347;SDS011;21711;49.708;18.568;2023-10-31T06:50:35;5.75;;;0.98;;
31347;SDS011;21711;49.708;18.568;2023-10-31T06:53:03;4.47;;;0.90;;
31347;SDS011;21711;49.708;18.568;2023-10-31T06:55:30;2.15;;;0.80;;
31347;SDS011;21711;49.708;18.568;2023-10-31T06:57:57;3.70;;;0.93;;
31347;SDS011;21711;49.708;18.568;2023-10-31T07:00:25;2.17;;;0.90;;
31347;SDS011;21711;49.708;18.568;2023-10-31T07:02:53;2.15;;;0.98;;
31347;SDS011;21711;49.708;18.568;2023-10-31T07:05:20;3.85;;;1.00;;
31347;SDS011;21711;49.708;18.568;2023-10-31T07:07:48;5.05;;;1.13;;
31347;SDS011;21711;49.708;18.568;2023-10-31T07:10:15;4.75;;;1.10;;
31347;SDS011;21711;49.708;18.568;2023-10-31T07:12:43;3.83;;;1.00;;
31347;SDS011;21711;49.708;18.568;2023-10-31T07:15:10;6.55;;;1.60;;
31347;SDS011;21711;49.708;18.568;2023-10-31T07:17:37;2.70;;;1.13;;
31347;SDS011;21711;49.708;18.568;2023-10-31T07:20:05;9.05;;;1.23;;
31347;SDS011;21711;49.708;18.568;2023-10-31T07:22:33;3.83;;;1.20;;
31347;SDS011;21711;49.708;18.568;2023-10-31T07:25:01;4.85;;;1.38;;
31347;SDS011;21711;49.708;18.568;2023-10-31T07:27:30;5.40;;;1.20;;
31347;SDS011;21711;49.708;18.568;2023-10-31T07:29:57;5.82;;;1.25;;
31347;SDS011;21711;49.708;18.568;2023-10-31T07:32:25;2.63;;;1.20;;
31347;SDS011;21711;49.708;18.568;2023-10-31T07:34:52;5.00;;;2.30;;
31347;SDS011;21711;49.708;18.568;2023-10-31T07:37:20;7.72;;;1.73;;
31347;SDS011;21711;49.708;18.568;2023-10-31T07:39:47;2.58;;;1.00;;
31347;SDS011;21711;49.708;18.568;2023-10-31T07:42:15;4.88;;;1.08;;
31347;SDS011;21711;49.708;18.568;2023-10-31T07:44:42;3.92;;;1.02;;
31347;SDS011;21711;49.708;18.568;2023-10-31T07:47:10;3.95;;;1.17;;
31347;SDS011;21711;49.708;18.568;2023-10-31T07:49:37;4.65;;;1.10;;
31347;SDS011;21711;49.708;18.568;2023-10-31T07:52:05;5.40;;;0.98;;
31347;SDS011;21711;49.708;18.568;2023-10-31T07:54:32;7.22;;;1.33;;
31347;SDS011;21711;49.708;18.568;2023-10-31T07:57:00;4.20;;;0.95;;
31347;SDS011;21711;49.708;18.568;2023-10-31T07:59:27;3.75;;;1.35;;
31347;SDS011;21711;49.708;18.568;2023-10-31T08:01:54;2.25;;;1.05;;
31347;SDS011;21711;49.708;18.568;2023-10-31T08:04:22;5.75;;;1.17;;
31347;SDS011;21711;49.708;18.568;2023-10-31T08:06:49;8.88;;;1.60;;
31347;SDS011;21711;49.708;18.568;2023-10-31T08:09:17;6.82;;;1.67;;
31347;SDS011;21711;49.708;18.568;2023-10-31T08:11:44;4.05;;;1.48;;
31347;SDS011;21711;49.708;18.568;2023-10-31T08:14:11;3.85;;;1.35;;
31347;SDS011;21711;49.708;18.568;2023-10-31T08:16:39;4.80;;;1.60;;
31347;SDS011;21711;49.708;18.568;2023-10-31T08:19:06;3.72;;;1.38;;
31347;SDS011;21711;49.708;18.568;2023-10-31T08:21:34;5.68;;;1.73;;
31347;SDS011;21711;49.708;18.568;2023-10-31T08:24:02;3.50;;;1.67;;
31347;SDS011;21711;49.708;18.568;2023-10-31T08:26:30;5.75;;;1.70;;
31347;SDS011;21711;49.708;18.568;2023-10-31T08:28:58;2.67;;;1.60;;
31347;SDS011;21711;49.708;18.568;2023-10-31T08:31:26;3.60;;;1.25;;
31347;SDS011;21711;49.708;18.568;2023-10-31T08:33:53;3.50;;;1.77;;
31347;SDS011;21711;49.708;18.568;2023-10-31T08:36:21;10.00;;;2.53;;
31347;SDS011;21711;49.708;18.568;2023-10-31T08:38:48;4.93;;;2.00;;
31347;SDS011;21711;49.708;18.568;2023-10-31T08:41:16;3.58;;;1.55;;
31347;SDS011;21711;49.708;18.568;2023-10-31T08:46:14;5.45;;;2.00;;
31347;SDS011;21711;49.708;18.568;2023-10-31T08:48:41;3.20;;;2.10;;
31347;SDS011;21711;49.708;18.568;2023-10-31T08:51:10;5.75;;;2.15;;
31347;SDS011;21711;49.708;18.568;2023-10-31T08:53:37;6.15;;;1.75;;
31347;SDS011;21711;49.708;18.568;2023-10-31T08:56:04;4.18;;;1.77;;
31347;SDS011;21711;49.708;18.568;2023-10-31T08:58:32;6.03;;;2.53;;
31347;SDS011;21711;49.708;18.568;2023-10-31T09:00:59;3.55;;;1.70;;
31347;SDS011;21711;49.708;18.568;2023-10-31T09:03:27;9.07;;;2.17;;
31347;SDS011;21711;49.708;18.568;2023-10-31T09:05:54;4.30;;;1.55;;
31347;SDS011;21711;49.708;18.568;2023-10-31T09:08:21;4.72;;;1.70;;
31347;SDS011;21711;49.708;18.568;2023-10-31T09:10:49;4.45;;;1.83;;
31347;SDS011;21711;49.708;18.568;2023-10-31T09:13:18;2.58;;;1.13;;
31347;SDS011;21711;49.708;18.568;2023-10-31T09:15:46;3.38;;;1.42;;
31347;SDS011;21711;49.708;18.568;2023-10-31T09:18:13;8.32;;;2.17;;
31347;SDS011;21711;49.708;18.568;2023-10-31T09:20:40;3.15;;;1.33;;
31347;SDS011;21711;49.708;18.568;2023-10-31T09:23:08;2.45;;;1.30;;
31347;SDS011;21711;49.708;18.568;2023-10-31T09:25:35;2.13;;;1.30;;
31347;SDS011;21711;49.708;18.568;2023-10-31T09:28:03;2.08;;;1.10;;
31347;SDS011;21711;49.708;18.568;2023-10-31T09:30:30;4.10;;;0.95;;
31347;SDS011;21711;49.708;18.568;2023-10-31T09:32:58;2.55;;;1.20;;
31347;SDS011;21711;49.708;18.568;2023-10-31T09:35:25;7.53;;;1.00;;
31347;SDS011;21711;49.708;18.568;2023-10-31T09:37:53;1.88;;;0.90;;
31347;SDS011;21711;49.708;18.568;2023-10-31T09:40:21;1.65;;;0.85;;
31347;SDS011;21711;49.708;18.568;2023-10-31T09:42:49;3.33;;;0.82;;
31347;SDS011;21711;49.708;18.568;2023-10-31T09:45:16;1.27;;;0.50;;
31347;SDS011;21711;49.708;18.568;2023-10-31T09:47:44;3.08;;;0.80;;
31347;SDS011;21711;49.708;18.568;2023-10-31T09:50:12;1.35;;;0.60;;
31347;SDS011;21711;49.708;18.568;2023-10-31T09:52:40;2.00;;;0.75;;
31347;SDS011;21711;49.708;18.568;2023-10-31T09:55:08;2.13;;;0.80;;
31347;SDS011;21711;49.708;18.568;2023-10-31T09:57:37;1.10;;;0.70;;
31347;SDS011;21711;49.708;18.568;2023-10-31T10:00:04;1.98;;;0.85;;
31347;SDS011;21711;49.708;18.568;2023-10-31T10:02:36;2.45;;;0.82;;
31347;SDS011;21711;49.708;18.568;2023-10-31T10:05:04;1.38;;;0.50;;
31347;SDS011;21711;49.708;18.568;2023-10-31T10:07:33;1.25;;;0.70;;
31347;SDS011;21711;49.708;18.568;2023-10-31T10:10:02;3.45;;;0.95;;
31347;SDS011;21711;49.708;18.568;2023-10-31T10:12:29;3.97;;;0.90;;
31347;SDS011;21711;49.708;18.568;2023-10-31T10:14:59;1.27;;;0.63;;
31347;SDS011;21711;49.708;18.568;2023-10-31T10:17:27;1.75;;;0.90;;
31347;SDS011;21711;49.708;18.568;2023-10-31T10:20:06;2.33;;;0.68;;
31347;SDS011;21711;49.708;18.568;2023-10-31T10:22:39;2.20;;;0.60;;
31347;SDS011;21711;49.708;18.568;2023-10-31T10:25:09;1.88;;;0.80;;
31347;SDS011;21711;49.708;18.568;2023-10-31T10:27:43;2.55;;;1.00;;
31347;SDS011;21711;49.708;18.568;2023-10-31T10:30:12;7.18;;;0.60;;
31347;SDS011;21711;49.708;18.568;2023-10-31T10:32:40;1.73;;;0.70;;
31347;SDS011;21711;49.708;18.568;2023-10-31T10:35:08;3.00;;;0.80;;
31347;SDS011;21711;49.708;18.568;2023-10-31T10:37:36;1.30;;;0.50;;
31347;SDS011;21711;49.708;18.568;2023-10-31T10:40:06;0.50;;;0.30;;
31347;SDS011;21711;49.708;18.568;2023-10-31T10:45:15;2.00;;;0.90;;
31347;SDS011;21711;49.708;18.568;2023-10-31T10:47:49;3.10;;;0.57;;
31347;SDS011;21711;49.708;18.568;2023-10-31T10:50:19;1.20;;;0.45;;
31347;SDS011;21711;49.708;18.568;2023-10-31T10:52:49;1.23;;;0.47;;
31347;SDS011;21711;49.708;18.568;2023-10-31T10:56:08;2.67;;;0.57;;
31347;SDS011;21711;49.708;18.568;2023-10-31T10:58:51;0.95;;;0.45;;
31347;SDS011;21711;49.708;18.568;2023-10-31T11:01:46;3.10;;;0.40;;
31347;SDS011;21711;49.708;18.568;2023-10-31T11:04:15;1.15;;;0.60;;
31347;SDS011;21711;49.708;18.568;2023-10-31T11:06:44;0.60;;;0.40;;
31347;SDS011;21711;49.708;18.568;2023-10-31T11:09:12;1.67;;;0.63;;
31347;SDS011;21711;49.708;18.568;2023-10-31T11:11:40;6.65;;;0.80;;
31347;SDS011;21711;49.708;18.568;2023-10-31T11:14:08;2.15;;;0.50;;
31347;SDS011;21711;49.708;18.568;2023-10-31T11:16:41;3.55;;;0.63;;
31347;SDS011;21711;49.708;18.568;2023-10-31T11:19:15;1.45;;;0.68;;
31347;SDS011;21711;49.708;18.568;2023-10-31T11:21:53;1.13;;;0.52;;
31347;SDS011;21711;49.708;18.568;2023-10-31T11:24:22;1.48;;;0.85;;
31347;SDS011;21711;49.708;18.568;2023-10-31T11:26:50;1.38;;;0.40;;
31347;SDS011;21711;49.708;18.568;2023-10-31T11:29:26;2.60;;;0.55;;
31347;SDS011;21711;49.708;18.568;2023-10-31T11:31:54;4.35;;;0.40;;
31347;SDS011;21711;49.708;18.568;2023-10-31T11:34:23;0.75;;;0.47;;
31347;SDS011;21711;49.708;18.568;2023-10-31T11:37:16;1.85;;;0.30;;
31347;SDS011;21711;49.708;18.568;2023-10-31T11:42:41;5.25;;;0.60;;
31347;SDS011;21711;49.708;18.568;2023-10-31T11:45:09;0.90;;;0.47;;
31347;SDS011;21711;49.708;18.568;2023-10-31T11:47:49;1.88;;;0.38;;
31347;SDS011;21711;49.708;18.568;2023-10-31T11:50:18;1.67;;;0.63;;
31347;SDS011;21711;49.708;18.568;2023-10-31T11:52:57;0.90;;;0.35;;
31347;SDS011;21711;49.708;18.568;2023-10-31T11:55:27;2.15;;;0.68;;
31347;SDS011;21711;49.708;18.568;2023-10-31T11:57:54;4.82;;;0.45;;
31347;SDS011;21711;49.708;18.568;2023-10-31T12:00:22;3.17;;;0.60;;
31347;SDS011;21711;49.708;18.568;2023-10-31T12:03:00;0.50;;;0.30;;
31347;SDS011;21711;49.708;18.568;2023-10-31T12:05:29;2.65;;;0.60;;
31347;SDS011;21711;49.708;18.568;2023-10-31T12:07:56;0.55;;;0.45;;
31347;SDS011;21711;49.708;18.568;2023-10-31T12:10:24;1.55;;;0.50;;
31347;SDS011;21711;49.708;18.568;2023-10-31T12:12:59;2.15;;;0.50;;
31347;SDS011;21711;49.708;18.568;2023-10-31T12:15:26;0.70;;;0.50;;
31347;SDS011;21711;49.708;18.568;2023-10-31T12:17:57;3.35;;;0.60;;
31347;SDS011;21711;49.708;18.568;2023-10-31T12:20:27;6.95;;;0.70;;
31347;SDS011;21711;49.708;18.568;2023-10-31T12:23:01;1.63;;;0.57;;
31347;SDS011;21711;49.708;18.568;2023-10-31T12:25:31;2.90;;;0.50;;
31347;SDS011;21711;49.708;18.568;2023-10-31T12:28:02;2.65;;;0.50;;
31347;SDS011;21711;49.708;18.568;2023-10-31T12:30:30;1.30;;;0.57;;
31347;SDS011;21711;49.708;18.568;2023-10-31T12:32:57;1.17;;;0.75;;
31347;SDS011;21711;49.708;18.568;2023-10-31T12:35:25;1.75;;;0.85;;
31347;SDS011;21711;49.708;18.568;2023-10-31T12:37:53;1.38;;;0.50;;
31347;SDS011;21711;49.708;18.568;2023-10-31T12:40:22;1.52;;;0.40;;
31347;SDS011;21711;49.708;18.568;2023-10-31T12:42:51;0.93;;;0.50;;
31347;SDS011;21711;49.708;18.568;2023-10-31T12:45:19;3.15;;;0.70;;
31347;SDS011;21711;49.708;18.568;2023-10-31T12:50:32;1.27;;;0.80;;
31347;SDS011;21711;49.708;18.568;2023-10-31T12:53:00;1.20;;;0.68;;
31347;SDS011;21711;49.708;18.568;2023-10-31T12:55:30;1.17;;;0.50;;
31347;SDS011;21711;49.708;18.568;2023-10-31T12:58:05;3.80;;;0.60;;
31347;SDS011;21711;49.708;18.568;2023-10-31T13:00:34;4.65;;;1.02;;
31347;SDS011;21711;49.708;18.568;2023-10-31T13:03:06;1.30;;;0.52;;
31347;SDS011;21711;49.708;18.568;2023-10-31T13:05:35;2.75;;;0.88;;
31347;SDS011;21711;49.708;18.568;2023-10-31T13:08:08;5.95;;;0.95;;
31347;SDS011;21711;49.708;18.568;2023-10-31T13:10:43;2.47;;;0.80;;
31347;SDS011;21711;49.708;18.568;2023-10-31T13:13:10;3.75;;;1.08;;
31347;SDS011;21711;49.708;18.568;2023-10-31T13:15:39;3.22;;;1.27;;
31347;SDS011;21711;49.708;18.568;2023-10-31T13:18:07;1.80;;;1.08;;
31347;SDS011;21711;49.708;18.568;2023-10-31T13:20:37;3.55;;;1.70;;
31347;SDS011;21711;49.708;18.568;2023-10-31T13:23:05;2.67;;;1.73;;
31347;SDS011;21711;49.708;18.568;2023-10-31T13:25:33;6.05;;;2.75;;
31347;SDS011;21711;49.708;18.568;2023-10-31T13:28:01;2.65;;;1.75;;
31347;SDS011;21711;49.708;18.568;2023-10-31T13:30:30;3.45;;;1.98;;
31347;SDS011;21711;49.708;18.568;2023-10-31T13:32:58;5.90;;;3.20;;
31347;SDS011;21711;49.708;18.568;2023-10-31T13:35:25;7.05;;;3.80;;
31347;SDS011;21711;49.708;18.568;2023-10-31T13:37:52;7.05;;;3.65;;
31347;SDS011;21711;49.708;18.568;2023-10-31T13:40:20;8.15;;;3.33;;
31347;SDS011;21711;49.708;18.568;2023-10-31T13:42:48;4.63;;;2.65;;
31347;SDS011;21711;49.708;18.568;2023-10-31T13:45:15;4.05;;;2.50;;
31347;SDS011;21711;49.708;18.568;2023-10-31T13:47:42;4.70;;;2.33;;
31347;SDS011;21711;49.708;18.568;2023-10-31T13:50:10;5.15;;;2.08;;
31347;SDS011;21711;49.708;18.568;2023-10-31T13:52:37;5.88;;;1.83;;
31347;SDS011;21711;49.708;18.568;2023-10-31T13:55:05;2.97;;;1.92;;
31347;SDS011;21711;49.708;18.568;2023-10-31T13:57:33;5.10;;;1.98;;
31347;SDS011;21711;49.708;18.568;2023-10-31T14:00:00;4.25;;;2.20;;
31347;SDS011;21711;49.708;18.568;2023-10-31T14:02:38;3.58;;;2.25;;
31347;SDS011;21711;49.708;18.568;2023-10-31T14:05:07;6.38;;;1.95;;
31347;SDS011;21711;49.708;18.568;2023-10-31T14:07:35;4.00;;;2.47;;
31347;SDS011;21711;49.708;18.568;2023-10-31T14:10:03;6.82;;;2.17;;
31347;SDS011;21711;49.708;18.568;2023-10-31T14:12:30;3.60;;;2.30;;
31347;SDS011;21711;49.708;18.568;2023-10-31T14:14:58;3.95;;;2.30;;
31347;SDS011;21711;49.708;18.568;2023-10-31T14:17:25;3.05;;;2.05;;
31347;SDS011;21711;49.708;18.568;2023-10-31T14:19:53;2.67;;;1.70;;
31347;SDS011;21711;49.708;18.568;2023-10-31T14:22:20;5.18;;;1.80;;
31347;SDS011;21711;49.708;18.568;2023-10-31T14:24:48;3.53;;;1.70;;
31347;SDS011;21711;49.708;18.568;2023-10-31T14:27:15;2.08;;;1.75;;
31347;SDS011;21711;49.708;18.568;2023-10-31T14:29:43;3.30;;;1.52;;
31347;SDS011;21711;49.708;18.568;2023-10-31T14:32:11;3.00;;;1.50;;
31347;SDS011;21711;49.708;18.568;2023-10-31T14:34:39;3.63;;;1.70;;
31347;SDS011;21711;49.708;18.568;2023-10-31T14:37:06;2.85;;;1.70;;
31347;SDS011;21711;49.708;18.568;2023-10-31T14:39:33;3.35;;;1.85;;
31347;SDS011;21711;49.708;18.568;2023-10-31T14:42:01;3.55;;;2.17;;
31347;SDS011;21711;49.708;18.568;2023-10-31T14:44:29;5.60;;;2.88;;
31347;SDS011;21711;49.708;18.568;2023-10-31T14:46:56;5.43;;;2.25;;
31347;SDS011;21711;49.708;18.568;2023-10-31T14:49:24;1.77;;;1.20;;
31347;SDS011;21711;49.708;18.568;2023-10-31T14:51:51;2.20;;;1.30;;
31347;SDS011;21711;49.708;18.568;2023-10-31T14:54:19;6.55;;;1.13;;